sensor_id;sensor_type;location;lat;lon;timestamp;pressure;altitude;pressure_sealevel;temperature;humidity
35848;BME280;22332;51.954;20.118;2023-02-01T00:00:40;98942.83;;;3.73;85.35
35848;BME280;22332;51.954;20.118;2023-02-01T00:04:01;98951.38;;;3.72;85.27
35848;BME280;22332;51.954;20.118;2023-02-01T00:07:07;98947.75;;;3.72;85.35
35848;BME280;22332;51.954;20.118;2023-02-01T00:10:13;98940.30;;;3.72;85.33
35848;BME280;22332;51.954;20.118;2023-02-01T00:13:19;98946.46;;;3.70;85.67
35848;BME280;22332;51.954;20.118;2023-02-01T00:16:26;98953.90;;;3.62;86.08
35848;BME280;22332;51.954;20.118;2023-02-01T00:19:32;98957.92;;;3.52;86.03
35848;BME280;22332;51.954;20.118;2023-02-01T00:22:38;98972.33;;;3.53;85.76
35848;BME280;22332;51.954;20.118;2023-02-01T00:25:43;98973.98;;;3.56;85.65
35848;BME280;22332;51.954;20.118;2023-02-01T00:28:49;98980.19;;;3.59;85.86
35848;BME280;22332;51.954;20.118;2023-02-01T00:31:54;98989.06;;;3.58;85.92
35848;BME280;22332;51.954;20.118;2023-02-01T00:35:00;98993.52;;;3.56;85.85
35848;BME280;22332;51.954;20.118;2023-02-01T00:38:06;98991.02;;;3.54;85.75
35848;BME280;22332;51.954;20.118;2023-02-01T00:41:14;98993.73;;;3.49;85.69
35848;BME280;22332;51.954;20.118;2023-02-01T00:44:19;98995.59;;;3.42;85.73
35848;BME280;22332;51.954;20.118;2023-02-01T00:47:25;98998.13;;;3.42;85.62
35848;BME280;22332;51.954;20.118;2023-02-01T00:50:30;99002.48;;;3.42;85.60
35848;BME280;22332;51.954;20.118;2023-02-01T00:53:36;98997.87;;;3.39;85.67
35848;BME280;22332;51.954;20.118;2023-02-01T00:56:42;98999.11;;;3.34;85.59
35848;BME280;22332;51.954;20.118;2023-02-01T00:59:47;99006.37;;;3.32;85.67
35848;BME280;22332;51.954;20.118;2023-02-01T01:02:54;99005.20;;;3.37;85.32
35848;BME280;22332;51.954;20.118;2023-02-01T01:06:01;99000.85;;;3.45;85.10
35848;BME280;22332;51.954;20.118;2023-02-01T01:09:09;99005.88;;;3.47;84.76
35848;BME280;22332;51.954;20.118;2023-02-01T01:12:15;99005.77;;;3.48;84.60
35848;BME280;22332;51.954;20.118;2023-02-01T01:15:21;99005.51;;;3.43;84.43
35848;BME280;22332;51.954;20.118;2023-02-01T01:18:27;99003.93;;;3.38;84.20
35848;BME280;22332;51.954;20.118;2023-02-01T01:21:32;99007.81;;;3.33;84.20
35848;BME280;22332;51.954;20.118;2023-02-01T01:24:38;99012.56;;;3.29;83.99
35848;BME280;22332;51.954;20.118;2023-02-01T01:27:43;99015.90;;;3.29;84.03
35848;BME280;22332;51.954;20.118;2023-02-01T01:30:49;99019.95;;;3.27;84.05
35848;BME280;22332;51.954;20.118;2023-02-01T01:33:56;99020.19;;;3.23;83.81
35848;BME280;22332;51.954;20.118;2023-02-01T01:37:03;99020.95;;;3.16;84.05
35848;BME280;22332;51.954;20.118;2023-02-01T01:40:11;99018.58;;;3.09;84.13
35848;BME280;22332;51.954;20.118;2023-02-01T01:43:19;99018.39;;;3.07;84.15
35848;BME280;22332;51.954;20.118;2023-02-01T01:46:28;99017.63;;;3.10;83.92
35848;BME280;22332;51.954;20.118;2023-02-01T01:49:34;99009.23;;;3.16;83.81
35848;BME280;22332;51.954;20.118;2023-02-01T01:52:44;99012.80;;;3.17;83.42
35848;BME280;22332;51.954;20.118;2023-02-01T01:55:52;99021.45;;;3.10;83.19
35848;BME280;22332;51.954;20.118;2023-02-01T01:58:59;99027.73;;;3.05;83.42
35848;BME280;22332;51.954;20.118;2023-02-01T02:02:05;99021.88;;;3.02;83.42
35848;BME280;22332;51.954;20.118;2023-02-01T02:05:11;99026.61;;;3.00;83.37
35848;BME280;22332;51.954;20.118;2023-02-01T02:08:19;99036.29;;;3.00;83.44
35848;BME280;22332;51.954;20.118;2023-02-01T02:11:25;99034.39;;;2.99;83.51
35848;BME280;22332;51.954;20.118;2023-02-01T02:14:31;99034.85;;;3.06;83.52
35848;BME280;22332;51.954;20.118;2023-02-01T02:17:47;99032.08;;;3.08;83.44
35848;BME280;22332;51.954;20.118;2023-02-01T02:21:12;99025.34;;;3.10;83.47
35848;BME280;22332;51.954;20.118;2023-02-01T02:24:36;99019.41;;;3.07;83.31
35848;BME280;22332;51.954;20.118;2023-02-01T02:27:52;99030.92;;;3.03;83.17
35848;BME280;22332;51.954;20.118;2023-02-01T02:31:25;99032.56;;;3.02;83.46
35848;BME280;22332;51.954;20.118;2023-02-01T02:34:40;99033.59;;;3.06;83.15
35848;BME280;22332;51.954;20.118;2023-02-01T02:37:54;99037.45;;;3.06;83.14
35848;BME280;22332;51.954;20.118;2023-02-01T02:41:12;99041.58;;;3.05;83.35
35848;BME280;22332;51.954;20.118;2023-02-01T02:44:47;99051.77;;;3.03;83.20
35848;BME280;22332;51.954;20.118;2023-02-01T02:48:17;99059.72;;;2.99;83.18
35848;BME280;22332;51.954;20.118;2023-02-01T02:51:30;99062.31;;;2.99;83.46
35848;BME280;22332;51.954;20.118;2023-02-01T02:54:57;99064.73;;;3.04;83.42
35848;BME280;22332;51.954;20.118;2023-02-01T02:58:06;99062.02;;;3.07;83.30
35848;BME280;22332;51.954;20.118;2023-02-01T03:01:31;99059.58;;;3.06;83.04
35848;BME280;22332;51.954;20.118;2023-02-01T03:04:55;99055.92;;;3.06;83.14
35848;BME280;22332;51.954;20.118;2023-02-01T03:08:11;99054.89;;;3.02;82.98
35848;BME280;22332;51.954;20.118;2023-02-01T03:11:18;99049.30;;;2.98;82.97
35848;BME280;22332;51.954;20.118;2023-02-01T03:14:24;99050.73;;;2.97;82.86
35848;BME280;22332;51.954;20.118;2023-02-01T03:17:35;99049.02;;;2.95;82.54
35848;BME280;22332;51.954;20.118;2023-02-01T03:20:49;99047.70;;;2.90;82.56
35848;BME280;22332;51.954;20.118;2023-02-01T03:23:59;99058.86;;;2.85;82.56
35848;BME280;22332;51.954;20.118;2023-02-01T03:27:10;99057.92;;;2.79;82.77
35848;BME280;22332;51.954;20.118;2023-02-01T03:30:19;99060.80;;;2.79;82.56
35848;BME280;22332;51.954;20.118;2023-02-01T03:33:27;99063.51;;;2.78;82.49
35848;BME280;22332;51.954;20.118;2023-02-01T03:36:39;99064.08;;;2.81;82.61
35848;BME280;22332;51.954;20.118;2023-02-01T03:39:49;99064.64;;;2.87;82.28
35848;BME280;22332;51.954;20.118;2023-02-01T03:43:01;99065.73;;;2.92;82.33
35848;BME280;22332;51.954;20.118;2023-02-01T03:46:12;99072.41;;;3.01;82.35
35848;BME280;22332;51.954;20.118;2023-02-01T03:49:24;99071.20;;;3.04;82.12
35848;BME280;22332;51.954;20.118;2023-02-01T03:52:34;99072.51;;;3.03;81.85
35848;BME280;22332;51.954;20.118;2023-02-01T03:55:43;99068.94;;;3.04;82.06
35848;BME280;22332;51.954;20.118;2023-02-01T03:58:49;99075.63;;;3.10;81.92
35848;BME280;22332;51.954;20.118;2023-02-01T04:02:05;99088.15;;;3.15;81.80
35848;BME280;22332;51.954;20.118;2023-02-01T04:05:11;99085.17;;;3.19;81.70
35848;BME280;22332;51.954;20.118;2023-02-01T04:08:19;99090.57;;;3.22;81.80
35848;BME280;22332;51.954;20.118;2023-02-01T04:11:25;99094.52;;;3.17;82.42
35848;BME280;22332;51.954;20.118;2023-02-01T04:14:31;99091.34;;;3.11;82.70
35848;BME280;22332;51.954;20.118;2023-02-01T04:17:37;99096.38;;;3.07;82.68
35848;BME280;22332;51.954;20.118;2023-02-01T04:20:43;99092.88;;;3.07;82.85
35848;BME280;22332;51.954;20.118;2023-02-01T04:23:50;99096.41;;;3.09;82.21
35848;BME280;22332;51.954;20.118;2023-02-01T04:26:55;99092.60;;;3.13;82.17
35848;BME280;22332;51.954;20.118;2023-02-01T04:30:01;99097.04;;;3.16;82.08
35848;BME280;22332;51.954;20.118;2023-02-01T04:33:06;99109.72;;;3.16;81.78
35848;BME280;22332;51.954;20.118;2023-02-01T04:36:12;99106.45;;;3.13;81.76
35848;BME280;22332;51.954;20.118;2023-02-01T04:39:17;99100.31;;;3.09;81.97
35848;BME280;22332;51.954;20.118;2023-02-01T04:42:23;99097.59;;;3.08;81.99
35848;BME280;22332;51.954;20.118;2023-02-01T04:45:28;99102.98;;;3.08;82.18
35848;BME280;22332;51.954;20.118;2023-02-01T04:48:35;99097.59;;;3.12;82.24
35848;BME280;22332;51.954;20.118;2023-02-01T04:51:41;99096.66;;;3.19;82.22
35848;BME280;22332;51.954;20.118;2023-02-01T04:54:47;99098.95;;;3.23;81.95
35848;BME280;22332;51.954;20.118;2023-02-01T04:57:54;99099.96;;;3.23;81.59
35848;BME280;22332;51.954;20.118;2023-02-01T05:01:03;99101.61;;;3.22;81.76
35848;BME280;22332;51.954;20.118;2023-02-01T05:04:09;99100.33;;;3.19;81.72
35848;BME280;22332;51.954;20.118;2023-02-01T05:07:15;99100.25;;;3.20;81.84
35848;BME280;22332;51.954;20.118;2023-02-01T05:10:20;99102.89;;;3.24;81.86
35848;BME280;22332;51.954;20.118;2023-02-01T05:13:26;99106.23;;;3.28;81.73
35848;BME280;22332;51.954;20.118;2023-02-01T05:16:48;99102.60;;;3.31;81.35
35848;BME280;22332;51.954;20.118;2023-02-01T05:19:54;99097.95;;;3.32;81.12
35848;BME280;22332;51.954;20.118;2023-02-01T05:22:59;99096.88;;;3.32;81.21
35848;BME280;22332;51.954;20.118;2023-02-01T05:26:05;99096.44;;;3.27;81.01
35848;BME280;22332;51.954;20.118;2023-02-01T05:29:11;99093.20;;;3.22;81.28
35848;BME280;22332;51.954;20.118;2023-02-01T05:32:17;99074.91;;;3.20;81.16
35848;BME280;22332;51.954;20.118;2023-02-01T05:35:28;99084.80;;;3.22;81.17
35848;BME280;22332;51.954;20.118;2023-02-01T05:38:33;99082.96;;;3.22;80.96
35848;BME280;22332;51.954;20.118;2023-02-01T05:41:39;99082.54;;;3.27;81.23
35848;BME280;22332;51.954;20.118;2023-02-01T05:44:44;99083.28;;;3.31;80.81
35848;BME280;22332;51.954;20.118;2023-02-01T05:47:52;99090.39;;;3.30;80.73
35848;BME280;22332;51.954;20.118;2023-02-01T05:50:58;99085.16;;;3.25;80.81
35848;BME280;22332;51.954;20.118;2023-02-01T05:54:03;99084.52;;;3.19;80.84
35848;BME280;22332;51.954;20.118;2023-02-01T05:57:09;99093.20;;;3.12;80.88
35848;BME280;22332;51.954;20.118;2023-02-01T06:00:16;99099.42;;;3.09;81.13
35848;BME280;22332;51.954;20.118;2023-02-01T06:03:22;99097.86;;;3.11;81.31
35848;BME280;22332;51.954;20.118;2023-02-01T06:06:28;99094.26;;;3.17;81.18
35848;BME280;22332;51.954;20.118;2023-02-01T06:09:33;99098.29;;;3.24;81.09
35848;BME280;22332;51.954;20.118;2023-02-01T06:12:39;99089.43;;;3.27;80.91
35848;BME280;22332;51.954;20.118;2023-02-01T06:15:44;99082.34;;;3.28;81.24
35848;BME280;22332;51.954;20.118;2023-02-01T06:18:51;99078.17;;;3.27;81.16
35848;BME280;22332;51.954;20.118;2023-02-01T06:21:57;99081.48;;;3.27;81.17
35848;BME280;22332;51.954;20.118;2023-02-01T06:25:02;99087.10;;;3.23;81.00
35848;BME280;22332;51.954;20.118;2023-02-01T06:28:09;99086.23;;;3.15;80.88
35848;BME280;22332;51.954;20.118;2023-02-01T06:31:15;99088.09;;;3.13;81.18
35848;BME280;22332;51.954;20.118;2023-02-01T06:34:20;99086.98;;;3.21;80.90
35848;BME280;22332;51.954;20.118;2023-02-01T06:37:27;99092.66;;;3.28;80.83
35848;BME280;22332;51.954;20.118;2023-02-01T06:40:33;99096.26;;;3.33;80.56
35848;BME280;22332;51.954;20.118;2023-02-01T06:43:39;99089.54;;;3.35;80.83
35848;BME280;22332;51.954;20.118;2023-02-01T06:46:45;99088.71;;;3.37;80.60
35848;BME280;22332;51.954;20.118;2023-02-01T06:49:51;99081.72;;;3.38;80.48
35848;BME280;22332;51.954;20.118;2023-02-01T06:52:56;99076.52;;;3.40;80.37
35848;BME280;22332;51.954;20.118;2023-02-01T06:56:04;99081.21;;;3.38;80.44
35848;BME280;22332;51.954;20.118;2023-02-01T06:59:11;99079.48;;;3.38;80.33
35848;BME280;22332;51.954;20.118;2023-02-01T07:02:16;99080.05;;;3.41;80.46
35848;BME280;22332;51.954;20.118;2023-02-01T07:05:23;99078.33;;;3.49;80.43
35848;BME280;22332;51.954;20.118;2023-02-01T07:08:30;99075.89;;;3.59;80.21
35848;BME280;22332;51.954;20.118;2023-02-01T07:11:35;99067.92;;;3.63;79.60
35848;BME280;22332;51.954;20.118;2023-02-01T07:14:43;99069.27;;;3.66;79.56
35848;BME280;22332;51.954;20.118;2023-02-01T07:17:49;99075.15;;;3.71;79.80
35848;BME280;22332;51.954;20.118;2023-02-01T07:20:54;99077.07;;;3.73;79.63
35848;BME280;22332;51.954;20.118;2023-02-01T07:24:00;99076.89;;;3.75;79.26
35848;BME280;22332;51.954;20.118;2023-02-01T07:27:06;99069.34;;;3.75;79.49
35848;BME280;22332;51.954;20.118;2023-02-01T07:30:13;99070.18;;;3.77;78.79
35848;BME280;22332;51.954;20.118;2023-02-01T07:33:19;99074.72;;;3.83;79.02
35848;BME280;22332;51.954;20.118;2023-02-01T07:36:26;99076.45;;;3.91;78.73
35848;BME280;22332;51.954;20.118;2023-02-01T07:39:31;99084.07;;;3.99;78.60
35848;BME280;22332;51.954;20.118;2023-02-01T07:42:51;99082.23;;;4.06;77.86
35848;BME280;22332;51.954;20.118;2023-02-01T07:45:57;99084.96;;;4.08;77.78
35848;BME280;22332;51.954;20.118;2023-02-01T07:49:03;99092.23;;;4.06;77.37
35848;BME280;22332;51.954;20.118;2023-02-01T07:52:09;99090.65;;;4.02;77.74
35848;BME280;22332;51.954;20.118;2023-02-01T07:55:17;99091.92;;;3.99;77.46
35848;BME280;22332;51.954;20.118;2023-02-01T07:58:23;99090.80;;;3.97;77.22
35848;BME280;22332;51.954;20.118;2023-02-01T08:01:29;99088.73;;;3.96;77.80
35848;BME280;22332;51.954;20.118;2023-02-01T08:04:35;99086.23;;;3.96;77.88
35848;BME280;22332;51.954;20.118;2023-02-01T08:07:40;99080.37;;;3.93;77.59
35848;BME280;22332;51.954;20.118;2023-02-01T08:10:46;99087.77;;;3.91;77.66
35848;BME280;22332;51.954;20.118;2023-02-01T08:13:52;99095.60;;;3.96;78.03
35848;BME280;22332;51.954;20.118;2023-02-01T08:16:58;99099.29;;;4.04;77.87
35848;BME280;22332;51.954;20.118;2023-02-01T08:20:05;99097.84;;;4.09;78.07
35848;BME280;22332;51.954;20.118;2023-02-01T08:23:10;99100.00;;;4.17;78.00
35848;BME280;22332;51.954;20.118;2023-02-01T08:26:18;99101.00;;;4.19;78.11
35848;BME280;22332;51.954;20.118;2023-02-01T08:29:25;99104.58;;;4.19;78.19
35848;BME280;22332;51.954;20.118;2023-02-01T08:32:30;99103.73;;;4.19;78.24
35848;BME280;22332;51.954;20.118;2023-02-01T08:35:37;99101.14;;;4.18;78.17
35848;BME280;22332;51.954;20.118;2023-02-01T08:38:43;99094.92;;;4.19;78.59
35848;BME280;22332;51.954;20.118;2023-02-01T08:41:48;99096.85;;;4.24;78.43
35848;BME280;22332;51.954;20.118;2023-02-01T08:45:09;99101.32;;;4.31;78.35
35848;BME280;22332;51.954;20.118;2023-02-01T08:48:15;99106.67;;;4.39;78.16
35848;BME280;22332;51.954;20.118;2023-02-01T08:51:22;99100.18;;;4.48;78.11
35848;BME280;22332;51.954;20.118;2023-02-01T08:54:28;99096.85;;;4.59;77.50
35848;BME280;22332;51.954;20.118;2023-02-01T08:57:34;99093.34;;;4.74;77.46
35848;BME280;22332;51.954;20.118;2023-02-01T09:00:39;99095.04;;;4.89;77.19
35848;BME280;22332;51.954;20.118;2023-02-01T09:03:45;99099.67;;;5.02;77.04
35848;BME280;22332;51.954;20.118;2023-02-01T09:06:51;99102.99;;;5.15;76.87
35848;BME280;22332;51.954;20.118;2023-02-01T09:09:56;99102.17;;;5.20;76.58
35848;BME280;22332;51.954;20.118;2023-02-01T09:13:05;99104.63;;;5.19;76.96
35848;BME280;22332;51.954;20.118;2023-02-01T09:16:11;99108.36;;;5.13;75.84
35848;BME280;22332;51.954;20.118;2023-02-01T09:19:17;99108.20;;;5.03;75.88
35848;BME280;22332;51.954;20.118;2023-02-01T09:22:22;99095.02;;;4.99;76.26
35848;BME280;22332;51.954;20.118;2023-02-01T09:25:28;99100.96;;;4.96;75.92
35848;BME280;22332;51.954;20.118;2023-02-01T09:28:34;99097.57;;;4.88;76.09
35848;BME280;22332;51.954;20.118;2023-02-01T09:31:40;99098.30;;;4.81;76.55
35848;BME280;22332;51.954;20.118;2023-02-01T09:34:46;99099.44;;;4.72;76.43
35848;BME280;22332;51.954;20.118;2023-02-01T09:37:53;99099.36;;;4.69;76.51
35848;BME280;22332;51.954;20.118;2023-02-01T09:40:59;99103.09;;;4.69;76.65
35848;BME280;22332;51.954;20.118;2023-02-01T09:44:10;99100.40;;;4.78;76.60
35848;BME280;22332;51.954;20.118;2023-02-01T09:47:20;99102.11;;;4.87;76.70
35848;BME280;22332;51.954;20.118;2023-02-01T09:50:33;99097.16;;;4.95;76.45
35848;BME280;22332;51.954;20.118;2023-02-01T09:53:43;99090.91;;;4.98;76.21
35848;BME280;22332;51.954;20.118;2023-02-01T09:56:55;99093.55;;;4.96;75.93
35848;BME280;22332;51.954;20.118;2023-02-01T10:00:06;99090.22;;;4.92;76.14
35848;BME280;22332;51.954;20.118;2023-02-01T10:03:17;99087.70;;;4.92;76.43
35848;BME280;22332;51.954;20.118;2023-02-01T10:06:43;99089.57;;;4.91;75.34
35848;BME280;22332;51.954;20.118;2023-02-01T10:10:01;99082.98;;;4.90;75.58
35848;BME280;22332;51.954;20.118;2023-02-01T10:13:27;99076.64;;;4.90;75.25
35848;BME280;22332;51.954;20.118;2023-02-01T10:16:43;99074.11;;;4.93;75.67
35848;BME280;22332;51.954;20.118;2023-02-01T10:19:57;99071.23;;;5.01;75.39
35848;BME280;22332;51.954;20.118;2023-02-01T10:23:11;99066.67;;;5.15;75.63
35848;BME280;22332;51.954;20.118;2023-02-01T10:26:28;99068.50;;;5.17;75.08
35848;BME280;22332;51.954;20.118;2023-02-01T10:29:39;99066.87;;;5.13;75.30
35848;BME280;22332;51.954;20.118;2023-02-01T10:32:46;99066.66;;;5.11;75.07
35848;BME280;22332;51.954;20.118;2023-02-01T10:35:55;99069.08;;;5.12;75.16
35848;BME280;22332;51.954;20.118;2023-02-01T10:39:05;99075.14;;;5.10;75.22
35848;BME280;22332;51.954;20.118;2023-02-01T10:42:13;99069.39;;;5.11;75.82
35848;BME280;22332;51.954;20.118;2023-02-01T10:45:21;99077.10;;;5.11;75.10
35848;BME280;22332;51.954;20.118;2023-02-01T10:48:28;99071.38;;;5.08;75.85
35848;BME280;22332;51.954;20.118;2023-02-01T10:51:43;99064.95;;;5.13;75.70
35848;BME280;22332;51.954;20.118;2023-02-01T10:54:52;99064.64;;;5.20;75.48
35848;BME280;22332;51.954;20.118;2023-02-01T10:57:59;99061.00;;;5.28;75.54
35848;BME280;22332;51.954;20.118;2023-02-01T11:01:08;99056.41;;;5.41;76.01
35848;BME280;22332;51.954;20.118;2023-02-01T11:04:15;99054.82;;;5.54;75.54
35848;BME280;22332;51.954;20.118;2023-02-01T11:07:25;99054.26;;;5.62;75.44
35848;BME280;22332;51.954;20.118;2023-02-01T11:10:40;99049.44;;;5.64;75.53
35848;BME280;22332;51.954;20.118;2023-02-01T11:13:45;99048.92;;;5.64;75.41
35848;BME280;22332;51.954;20.118;2023-02-01T11:16:58;99041.99;;;5.62;75.61
35848;BME280;22332;51.954;20.118;2023-02-01T11:23:21;99032.58;;;5.63;75.03
35848;BME280;22332;51.954;20.118;2023-02-01T11:26:28;99030.25;;;5.58;74.62
35848;BME280;22332;51.954;20.118;2023-02-01T11:29:38;99028.81;;;5.53;74.96
35848;BME280;22332;51.954;20.118;2023-02-01T11:32:46;99024.73;;;5.49;75.01
35848;BME280;22332;51.954;20.118;2023-02-01T11:35:53;99020.52;;;5.49;74.42
35848;BME280;22332;51.954;20.118;2023-02-01T11:39:19;99014.02;;;5.56;74.67
35848;BME280;22332;51.954;20.118;2023-02-01T11:42:27;99016.43;;;5.67;74.81
35848;BME280;22332;51.954;20.118;2023-02-01T11:45:34;99016.05;;;5.75;74.26
35848;BME280;22332;51.954;20.118;2023-02-01T11:48:41;99006.89;;;5.80;74.23
35848;BME280;22332;51.954;20.118;2023-02-01T11:51:54;99002.82;;;5.84;74.03
35848;BME280;22332;51.954;20.118;2023-02-01T11:55:16;99006.54;;;5.78;73.57
35848;BME280;22332;51.954;20.118;2023-02-01T11:58:39;98996.03;;;5.67;74.17
35848;BME280;22332;51.954;20.118;2023-02-01T12:02:32;98991.48;;;5.65;74.67
35848;BME280;22332;51.954;20.118;2023-02-01T12:05:38;98985.96;;;5.63;74.45
35848;BME280;22332;51.954;20.118;2023-02-01T12:09:04;98993.85;;;5.61;74.22
35848;BME280;22332;51.954;20.118;2023-02-01T12:12:19;98985.98;;;5.53;73.85
35848;BME280;22332;51.954;20.118;2023-02-01T12:15:44;98982.45;;;5.57;73.72
35848;BME280;22332;51.954;20.118;2023-02-01T12:19:20;98973.86;;;5.66;73.60
35848;BME280;22332;51.954;20.118;2023-02-01T12:22:41;98974.50;;;5.76;73.45
35848;BME280;22332;51.954;20.118;2023-02-01T12:26:07;98973.44;;;5.76;73.70
35848;BME280;22332;51.954;20.118;2023-02-01T12:33:07;98968.32;;;5.92;73.60
35848;BME280;22332;51.954;20.118;2023-02-01T12:36:25;98961.61;;;6.03;73.83
35848;BME280;22332;51.954;20.118;2023-02-01T12:39:35;98953.48;;;6.11;73.54
35848;BME280;22332;51.954;20.118;2023-02-01T12:42:47;98957.61;;;6.16;73.58
35848;BME280;22332;51.954;20.118;2023-02-01T12:45:58;98958.77;;;6.11;73.32
35848;BME280;22332;51.954;20.118;2023-02-01T12:49:10;98959.27;;;6.03;72.85
35848;BME280;22332;51.954;20.118;2023-02-01T12:52:20;98967.95;;;5.94;73.29
35848;BME280;22332;51.954;20.118;2023-02-01T12:55:36;98968.72;;;5.92;73.28
35848;BME280;22332;51.954;20.118;2023-02-01T12:58:44;98971.61;;;5.90;72.71
35848;BME280;22332;51.954;20.118;2023-02-01T13:01:56;98968.19;;;5.95;72.81
35848;BME280;22332;51.954;20.118;2023-02-01T13:05:11;98963.98;;;6.00;71.75
35848;BME280;22332;51.954;20.118;2023-02-01T13:08:22;98966.90;;;6.02;71.36
35848;BME280;22332;51.954;20.118;2023-02-01T13:11:33;98973.31;;;6.09;71.91
35848;BME280;22332;51.954;20.118;2023-02-01T13:14:42;98973.01;;;6.12;71.71
35848;BME280;22332;51.954;20.118;2023-02-01T13:17:50;98974.48;;;6.09;72.16
35848;BME280;22332;51.954;20.118;2023-02-01T13:21:05;98982.55;;;6.02;71.18
35848;BME280;22332;51.954;20.118;2023-02-01T13:24:29;98997.98;;;5.86;70.88
35848;BME280;22332;51.954;20.118;2023-02-01T13:27:36;98994.10;;;5.63;71.26
35848;BME280;22332;51.954;20.118;2023-02-01T13:34:42;99003.05;;;5.42;71.21
35848;BME280;22332;51.954;20.118;2023-02-01T13:38:11;99009.60;;;5.24;71.80
35848;BME280;22332;51.954;20.118;2023-02-01T13:41:29;99004.52;;;5.13;72.54
35848;BME280;22332;51.954;20.118;2023-02-01T13:44:39;99000.96;;;5.15;72.82
35848;BME280;22332;51.954;20.118;2023-02-01T13:47:48;99001.25;;;5.18;72.88
35848;BME280;22332;51.954;20.118;2023-02-01T13:50:58;99007.17;;;5.14;72.92
35848;BME280;22332;51.954;20.118;2023-02-01T13:54:05;99007.96;;;5.12;73.21
35848;BME280;22332;51.954;20.118;2023-02-01T13:57:36;99009.44;;;5.09;73.42
35848;BME280;22332;51.954;20.118;2023-02-01T14:00:43;99007.83;;;5.00;73.41
35848;BME280;22332;51.954;20.118;2023-02-01T14:03:49;99005.38;;;4.98;73.82
35848;BME280;22332;51.954;20.118;2023-02-01T14:06:57;99004.39;;;4.99;73.74
35848;BME280;22332;51.954;20.118;2023-02-01T14:13:40;98996.19;;;4.99;73.90
35848;BME280;22332;51.954;20.118;2023-02-01T14:20:45;98985.98;;;5.02;73.93
35848;BME280;22332;51.954;20.118;2023-02-01T14:23:59;98988.66;;;5.09;74.12
35848;BME280;22332;51.954;20.118;2023-02-01T14:27:20;98989.02;;;5.17;73.81
35848;BME280;22332;51.954;20.118;2023-02-01T14:30:27;98992.66;;;5.21;73.98
35848;BME280;22332;51.954;20.118;2023-02-01T14:33:32;98991.96;;;5.22;74.06
35848;BME280;22332;51.954;20.118;2023-02-01T14:36:47;98999.23;;;5.18;74.10
35848;BME280;22332;51.954;20.118;2023-02-01T14:39:59;98996.04;;;5.15;74.02
35848;BME280;22332;51.954;20.118;2023-02-01T14:43:06;99005.48;;;5.14;74.26
35848;BME280;22332;51.954;20.118;2023-02-01T14:46:13;99009.25;;;5.06;74.26
35848;BME280;22332;51.954;20.118;2023-02-01T14:49:18;99009.20;;;4.97;74.72
35848;BME280;22332;51.954;20.118;2023-02-01T14:52:31;99007.84;;;4.95;74.85
35848;BME280;22332;51.954;20.118;2023-02-01T14:55:40;99007.20;;;4.90;75.08
35848;BME280;22332;51.954;20.118;2023-02-01T14:58:51;99011.81;;;4.86;75.42
35848;BME280;22332;51.954;20.118;2023-02-01T15:01:59;99014.91;;;4.83;75.27
35848;BME280;22332;51.954;20.118;2023-02-01T15:05:30;99011.55;;;4.85;75.26
35848;BME280;22332;51.954;20.118;2023-02-01T15:08:39;99011.23;;;4.87;75.32
35848;BME280;22332;51.954;20.118;2023-02-01T15:12:02;99015.10;;;4.83;75.40
35848;BME280;22332;51.954;20.118;2023-02-01T15:15:14;99025.42;;;4.73;75.51
35848;BME280;22332;51.954;20.118;2023-02-01T15:18:21;99027.15;;;4.66;75.73
35848;BME280;22332;51.954;20.118;2023-02-01T15:21:26;99025.28;;;4.59;75.88
35848;BME280;22332;51.954;20.118;2023-02-01T15:24:32;99031.17;;;4.55;76.01
35848;BME280;22332;51.954;20.118;2023-02-01T15:27:38;99025.56;;;4.51;75.86
35848;BME280;22332;51.954;20.118;2023-02-01T15:30:53;99021.91;;;4.54;75.96
35848;BME280;22332;51.954;20.118;2023-02-01T15:33:59;99024.30;;;4.57;76.08
35848;BME280;22332;51.954;20.118;2023-02-01T15:37:06;99036.08;;;4.59;76.02
35848;BME280;22332;51.954;20.118;2023-02-01T15:40:23;99039.11;;;4.59;75.84
35848;BME280;22332;51.954;20.118;2023-02-01T15:43:30;99040.83;;;4.57;76.15
35848;BME280;22332;51.954;20.118;2023-02-01T15:46:41;99035.84;;;4.54;76.26
35848;BME280;22332;51.954;20.118;2023-02-01T15:49:51;99035.15;;;4.52;76.38
35848;BME280;22332;51.954;20.118;2023-02-01T15:52:58;99035.08;;;4.49;76.28
35848;BME280;22332;51.954;20.118;2023-02-01T15:56:05;99036.15;;;4.47;76.78
35848;BME280;22332;51.954;20.118;2023-02-01T15:59:16;99038.36;;;4.48;76.83
35848;BME280;22332;51.954;20.118;2023-02-01T16:02:32;99042.02;;;4.52;76.98
35848;BME280;22332;51.954;20.118;2023-02-01T16:05:42;99048.88;;;4.56;76.91
35848;BME280;22332;51.954;20.118;2023-02-01T16:08:53;99048.61;;;4.57;77.01
35848;BME280;22332;51.954;20.118;2023-02-01T16:12:00;99048.33;;;4.54;77.21
35848;BME280;22332;51.954;20.118;2023-02-01T16:15:08;99051.60;;;4.47;77.32
35848;BME280;22332;51.954;20.118;2023-02-01T16:18:14;99050.02;;;4.38;77.51
35848;BME280;22332;51.954;20.118;2023-02-01T16:21:20;99053.02;;;4.32;77.32
35848;BME280;22332;51.954;20.118;2023-02-01T16:24:26;99049.88;;;4.26;77.57
35848;BME280;22332;51.954;20.118;2023-02-01T16:27:31;99050.02;;;4.24;77.34
35848;BME280;22332;51.954;20.118;2023-02-01T16:30:37;99049.07;;;4.29;77.29
35848;BME280;22332;51.954;20.118;2023-02-01T16:33:42;99044.34;;;4.31;77.28
35848;BME280;22332;51.954;20.118;2023-02-01T16:36:50;99043.86;;;4.32;77.05
35848;BME280;22332;51.954;20.118;2023-02-01T16:39:56;99042.36;;;4.31;76.99
35848;BME280;22332;51.954;20.118;2023-02-01T16:43:01;99042.75;;;4.29;76.96
35848;BME280;22332;51.954;20.118;2023-02-01T16:46:14;99042.67;;;4.28;76.88
35848;BME280;22332;51.954;20.118;2023-02-01T16:49:22;99047.23;;;4.24;76.98
35848;BME280;22332;51.954;20.118;2023-02-01T16:52:28;99048.72;;;4.20;77.02
35848;BME280;22332;51.954;20.118;2023-02-01T16:55:34;99043.50;;;4.21;77.19
35848;BME280;22332;51.954;20.118;2023-02-01T16:58:40;99042.33;;;4.22;77.04
35848;BME280;22332;51.954;20.118;2023-02-01T17:01:47;99044.31;;;4.29;77.10